createdAt,value
2018-03-18T00:00:43.781Z,1004.07
2018-03-18T00:01:43.935Z,1004.03
2018-03-18T00:02:43.718Z,1004.17
2018-03-18T00:03:43.690Z,1004.11
2018-03-18T00:04:43.670Z,1004.14
2018-03-18T00:05:43.628Z,1004.18
2018-03-18T00:06:43.609Z,1004.17
2018-03-18T00:07:43.570Z,1004.10
2018-03-18T00:08:43.542Z,1004.10
2018-03-18T00:09:43.514Z,1004.10
2018-03-18T00:10:43.484Z,1004.11
2018-03-18T00:11:43.451Z,1004.19
2018-03-18T00:12:43.424Z,1004.14
2018-03-18T00:13:43.394Z,1004.00
2018-03-18T00:14:43.371Z,1004.09
2018-03-18T00:15:43.334Z,1004.07
2018-03-18T00:16:43.315Z,1004.11
2018-03-18T00:17:43.275Z,1004.11
2018-03-18T00:18:43.247Z,1004.06
2018-03-18T00:19:43.219Z,1004.11
2018-03-18T00:20:43.199Z,1004.09
2018-03-18T00:21:43.166Z,1004.25
2018-03-18T00:22:43.139Z,1004.06
2018-03-18T00:23:43.100Z,1004.14
2018-03-18T00:24:43.080Z,1004.23
2018-03-18T00:25:43.048Z,1004.23
2018-03-18T00:26:43.012Z,1004.34
2018-03-18T00:27:42.988Z,1004.11
2018-03-18T00:28:42.958Z,1004.20
2018-03-18T00:29:42.930Z,1004.20
2018-03-18T00:30:42.896Z,1004.16
2018-03-18T00:31:42.862Z,1004.12
2018-03-18T00:32:42.834Z,1004.13
2018-03-18T00:33:42.919Z,1004.05
2018-03-18T00:34:42.781Z,1004.16
2018-03-18T00:35:42.758Z,1004.19
2018-03-18T00:36:42.726Z,1004.25
2018-03-18T00:37:42.685Z,1004.20
2018-03-18T00:38:42.660Z,1004.18
2018-03-18T00:39:42.632Z,1004.09
2018-03-18T00:40:42.600Z,1004.14
2018-03-18T00:41:42.571Z,1004.20
2018-03-18T00:42:42.539Z,1004.22
2018-03-18T00:43:42.518Z,1004.33
2018-03-18T00:44:42.479Z,1004.30
2018-03-18T00:45:42.457Z,1004.25
2018-03-18T00:46:42.527Z,1004.32
2018-03-18T00:47:42.398Z,1004.39
2018-03-18T00:48:42.379Z,1004.29
2018-03-18T00:49:42.332Z,1004.40
2018-03-18T00:50:42.306Z,1004.34
2018-03-18T00:51:42.277Z,1004.24
2018-03-18T00:52:42.242Z,1004.26
2018-03-18T00:53:42.214Z,1004.24
2018-03-18T00:54:42.184Z,1004.24
2018-03-18T00:55:42.158Z,1004.33
2018-03-18T00:56:42.131Z,1004.29
2018-03-18T00:57:42.094Z,1004.38
2018-03-18T00:58:42.067Z,1004.45
2018-03-18T00:59:42.058Z,1004.24
2018-03-18T01:00:42.010Z,1004.20
2018-03-18T01:01:41.978Z,1004.27
2018-03-18T01:02:41.974Z,1004.32
2018-03-18T01:03:41.918Z,1004.32
2018-03-18T01:04:41.886Z,1004.14
2018-03-18T01:05:41.873Z,1004.27
2018-03-18T01:06:41.834Z,1004.31
2018-03-18T01:07:41.799Z,1004.22
2018-03-18T01:08:41.772Z,1004.27
2018-03-18T01:09:41.848Z,1004.08
2018-03-18T01:10:41.711Z,1004.33
2018-03-18T01:11:41.684Z,1004.16
2018-03-18T01:12:41.653Z,1004.18
2018-03-18T01:13:41.623Z,1004.26
2018-03-18T01:14:41.596Z,1004.24
2018-03-18T01:15:41.561Z,1004.28
2018-03-18T01:16:41.638Z,1004.31
2018-03-18T01:17:41.523Z,1004.31
2018-03-18T01:18:41.474Z,1004.24
2018-03-18T01:19:41.524Z,1004.19
2018-03-18T01:20:41.415Z,1004.26
2018-03-18T01:21:41.385Z,1004.26
2018-03-18T01:22:41.356Z,1004.16
2018-03-18T01:23:41.328Z,1004.32
2018-03-18T01:24:41.297Z,1004.30
2018-03-18T01:25:41.275Z,1004.34
2018-03-18T01:26:41.238Z,1004.33
2018-03-18T01:27:41.206Z,1004.25
2018-03-18T01:28:41.184Z,1004.37
2018-03-18T01:29:41.147Z,1004.28
2018-03-18T01:30:41.117Z,1004.24
2018-03-18T01:31:41.104Z,1004.32
2018-03-18T01:32:41.074Z,1004.33
2018-03-18T01:33:41.028Z,1004.28
2018-03-18T01:34:41.000Z,1004.22
2018-03-18T01:35:40.977Z,1004.26
2018-03-18T01:36:40.938Z,1004.26
2018-03-18T01:37:40.913Z,1004.21
2018-03-18T01:38:40.959Z,1004.17
2018-03-18T01:39:40.850Z,1004.19
2018-03-18T01:40:40.831Z,1004.22
2018-03-18T01:41:40.793Z,1004.18
2018-03-18T01:42:40.766Z,1004.19
2018-03-18T01:43:40.733Z,1004.21
2018-03-18T01:44:40.703Z,1004.12
2018-03-18T01:45:40.695Z,1004.11
2018-03-18T01:46:40.655Z,1004.17
2018-03-18T01:47:40.619Z,1004.05
2018-03-18T01:48:40.600Z,1004.01
2018-03-18T01:49:40.555Z,1004.19
2018-03-18T01:50:40.525Z,1004.11
2018-03-18T01:51:40.632Z,1004.13
2018-03-18T01:52:40.464Z,1004.21
2018-03-18T01:53:40.445Z,1004.15
2018-03-18T01:54:40.515Z,1004.20
2018-03-18T01:55:40.378Z,1004.19
2018-03-18T01:56:40.345Z,1004.08
2018-03-18T01:57:40.317Z,1004.12
2018-03-18T01:58:40.287Z,1004.15
2018-03-18T01:59:40.255Z,1004.13
2018-03-18T02:00:40.231Z,1004.11
2018-03-18T02:01:40.202Z,1004.19
2018-03-18T02:02:40.171Z,1004.19
2018-03-18T02:03:40.140Z,1004.07
2018-03-18T02:04:40.119Z,1004.09
2018-03-18T02:05:40.095Z,1004.06
2018-03-18T02:06:40.058Z,1004.06
2018-03-18T02:07:40.026Z,1004.17
2018-03-18T02:08:39.990Z,1004.05
2018-03-18T02:09:40.073Z,1004.02
2018-03-18T02:10:39.931Z,1004.06
2018-03-18T02:11:39.902Z,1004.08
2018-03-18T02:12:39.871Z,1004.11
2018-03-18T02:13:39.850Z,1004.06
2018-03-18T02:14:39.816Z,1004.02
2018-03-18T02:15:39.777Z,1004.12
2018-03-18T02:16:39.765Z,1004.08
2018-03-18T02:17:39.854Z,1004.03
2018-03-18T02:18:39.697Z,1004.06
2018-03-18T02:19:39.684Z,1004.08
2018-03-18T02:20:39.783Z,1003.97
2018-03-18T02:21:39.604Z,1004.01
2018-03-18T02:22:39.577Z,1004.05
2018-03-18T02:23:39.552Z,1004.04
2018-03-18T02:24:39.522Z,1004.09
2018-03-18T02:25:39.518Z,1004.17
2018-03-18T02:26:39.457Z,1003.97
2018-03-18T02:27:39.429Z,1004.02
2018-03-18T02:28:39.404Z,1004.18
2018-03-18T02:29:39.367Z,1004.05
2018-03-18T02:30:39.341Z,1004.10
2018-03-18T02:31:39.308Z,1004.04
2018-03-18T02:32:39.279Z,1004.09
2018-03-18T02:33:39.249Z,1004.05
2018-03-18T02:34:39.222Z,1004.06
2018-03-18T02:35:39.198Z,1004.02
2018-03-18T02:36:39.162Z,1003.98
2018-03-18T02:37:39.131Z,1004.02
2018-03-18T02:38:39.103Z,1004.08
2018-03-18T02:39:39.077Z,1004.00
2018-03-18T02:40:39.055Z,1004.02
2018-03-18T02:41:39.012Z,1004.07
2018-03-18T02:42:38.981Z,1003.95
2018-03-18T02:43:38.952Z,1003.99
2018-03-18T02:44:38.925Z,1003.96
2018-03-18T02:45:38.898Z,1004.05
2018-03-18T02:46:38.866Z,1003.92
2018-03-18T02:47:38.853Z,1003.95
2018-03-18T02:48:38.804Z,1003.85
2018-03-18T02:49:38.774Z,1003.92
2018-03-18T02:50:38.745Z,1003.91
2018-03-18T02:51:38.722Z,1004.00
2018-03-18T02:52:38.781Z,1003.95
2018-03-18T02:53:38.655Z,1003.92
2018-03-18T02:54:38.625Z,1003.91
2018-03-18T02:55:38.600Z,1003.91
2018-03-18T02:56:38.564Z,1004.00
2018-03-18T02:57:38.536Z,1003.93
2018-03-18T02:58:38.504Z,1003.94
2018-03-18T02:59:38.483Z,1003.84
2018-03-18T03:00:38.442Z,1003.97
2018-03-18T03:01:38.439Z,1003.89
2018-03-18T03:02:38.385Z,1003.98
2018-03-18T03:03:38.355Z,1003.89
2018-03-18T03:04:38.326Z,1003.92
2018-03-18T03:05:38.304Z,1003.98
2018-03-18T03:06:38.262Z,1003.93
2018-03-18T03:07:38.237Z,1003.91
2018-03-18T03:08:38.306Z,1003.95
2018-03-18T03:09:38.175Z,1003.95
2018-03-18T03:10:38.208Z,1003.94
2018-03-18T03:11:38.117Z,1003.90
2018-03-18T03:12:38.082Z,1003.94
2018-03-18T03:13:38.059Z,1003.95
2018-03-18T03:14:38.037Z,1004.02
2018-03-18T03:15:37.993Z,1003.98
2018-03-18T03:16:37.964Z,1003.94
2018-03-18T03:17:37.934Z,1004.05
2018-03-18T03:18:37.913Z,1003.94
2018-03-18T03:19:37.872Z,1003.96
2018-03-18T03:20:37.867Z,1003.94
2018-03-18T03:21:37.816Z,1003.93
2018-03-18T03:22:37.793Z,1004.00
2018-03-18T03:23:37.752Z,1004.01
2018-03-18T03:24:37.721Z,1004.03
2018-03-18T03:25:37.697Z,1004.06
2018-03-18T03:26:37.666Z,1003.95
2018-03-18T03:27:37.630Z,1003.92
2018-03-18T03:28:37.612Z,1004.05
2018-03-18T03:29:37.569Z,1003.77
2018-03-18T03:30:37.542Z,1003.93
2018-03-18T03:31:37.514Z,1003.89
2018-03-18T03:32:37.482Z,1004.01
2018-03-18T03:33:37.452Z,1004.09
2018-03-18T03:34:37.420Z,1004.01
2018-03-18T03:35:37.392Z,1003.94
2018-03-18T03:36:37.360Z,1004.02
2018-03-18T03:37:37.331Z,1003.96
2018-03-18T03:38:37.300Z,1004.01
2018-03-18T03:39:37.280Z,1004.01
2018-03-18T03:40:37.242Z,1004.08
2018-03-18T03:41:37.211Z,1003.98
2018-03-18T03:42:37.182Z,1004.14
2018-03-18T03:43:37.263Z,1004.03
2018-03-18T03:44:37.128Z,1003.96
2018-03-18T03:45:37.093Z,1004.09
2018-03-18T03:46:37.130Z,1004.14
2018-03-18T03:47:37.031Z,1004.14
2018-03-18T03:48:37.000Z,1004.12
2018-03-18T03:49:36.985Z,1004.11
2018-03-18T03:50:36.940Z,1004.12
2018-03-18T03:51:36.918Z,1004.36
2018-03-18T03:52:36.892Z,1004.33
2018-03-18T03:53:36.858Z,1004.13
2018-03-18T03:54:36.820Z,1004.22
2018-03-18T03:55:36.792Z,1004.18
2018-03-18T03:56:36.758Z,1004.16
2018-03-18T03:57:36.734Z,1004.10
2018-03-18T03:58:36.698Z,1004.28
2018-03-18T03:59:36.669Z,1004.22
2018-03-18T04:00:36.639Z,1004.22
2018-03-18T04:01:36.617Z,1004.20
2018-03-18T04:02:36.578Z,1004.36
2018-03-18T04:03:36.574Z,1004.18
2018-03-18T04:04:36.518Z,1004.22
2018-03-18T04:05:36.488Z,1004.19
2018-03-18T04:06:36.457Z,1004.23
2018-03-18T04:07:36.425Z,1004.27
2018-03-18T04:08:36.502Z,1004.19
2018-03-18T04:09:36.366Z,1004.28
2018-03-18T04:10:36.337Z,1004.24
2018-03-18T04:11:36.414Z,1004.29
2018-03-18T04:12:36.276Z,1004.29
2018-03-18T04:13:36.266Z,1004.43
2018-03-18T04:14:36.266Z,1004.25
2018-03-18T04:15:36.184Z,1004.31
2018-03-18T04:16:36.155Z,1004.29
2018-03-18T04:17:36.133Z,1004.26
2018-03-18T04:18:36.094Z,1004.33
2018-03-18T04:19:36.068Z,1004.27
2018-03-18T04:20:36.033Z,1004.19
2018-03-18T04:21:36.008Z,1004.35
2018-03-18T04:22:36.080Z,1004.35
2018-03-18T04:23:35.943Z,1004.34
2018-03-18T04:24:35.915Z,1004.32
2018-03-18T04:25:35.990Z,1004.26
2018-03-18T04:26:35.857Z,1004.33
2018-03-18T04:27:35.839Z,1004.33
2018-03-18T04:28:35.799Z,1004.29
2018-03-18T04:29:35.768Z,1004.41
2018-03-18T04:30:35.732Z,1004.37
2018-03-18T04:31:35.706Z,1004.29
2018-03-18T04:32:35.674Z,1004.36
2018-03-18T04:33:35.658Z,1004.24
2018-03-18T04:34:35.614Z,1004.35
2018-03-18T04:35:35.583Z,1004.26
2018-03-18T04:36:35.550Z,1004.42
2018-03-18T04:37:35.530Z,1004.34
2018-03-18T04:38:35.496Z,1004.34
2018-03-18T04:39:35.464Z,1004.39
2018-03-18T04:40:35.431Z,1004.42
2018-03-18T04:41:35.400Z,1004.39
2018-03-18T04:42:35.388Z,1004.32
2018-03-18T04:43:35.345Z,1004.35
2018-03-18T04:44:35.311Z,1004.35
2018-03-18T04:45:35.280Z,1004.36
2018-03-18T04:46:35.251Z,1004.46
2018-03-18T04:47:35.225Z,1004.31
2018-03-18T04:48:35.192Z,1004.40
2018-03-18T04:49:35.161Z,1004.45
2018-03-18T04:50:35.129Z,1004.26
2018-03-18T04:51:35.102Z,1004.40
2018-03-18T04:52:35.065Z,1004.33
2018-03-18T04:53:35.034Z,1004.40
2018-03-18T04:54:35.009Z,1004.40
2018-03-18T04:55:34.975Z,1004.40
2018-03-18T04:56:34.945Z,1004.43
2018-03-18T04:57:34.919Z,1004.37
2018-03-18T04:58:34.886Z,1004.44
2018-03-18T04:59:34.855Z,1004.49
2018-03-18T05:00:34.823Z,1004.48
2018-03-18T05:01:34.796Z,1004.44
2018-03-18T05:02:34.765Z,1004.43
2018-03-18T05:03:34.787Z,1004.33
2018-03-18T05:04:34.704Z,1004.41
2018-03-18T05:05:34.681Z,1004.45
2018-03-18T05:06:34.656Z,1004.49
2018-03-18T05:07:34.613Z,1004.44
2018-03-18T05:08:34.580Z,1004.50
2018-03-18T05:09:34.560Z,1004.44
2018-03-18T05:10:34.521Z,1004.51
2018-03-18T05:11:34.498Z,1004.49
2018-03-18T05:12:34.463Z,1004.39
2018-03-18T05:13:34.438Z,1004.54
2018-03-18T05:14:34.400Z,1004.45
2018-03-18T05:15:34.367Z,1004.47
2018-03-18T05:16:34.356Z,1004.45
2018-03-18T05:17:34.307Z,1004.52
2018-03-18T05:18:34.278Z,1004.43
2018-03-18T05:19:34.246Z,1004.42
2018-03-18T05:20:34.216Z,1004.52
2018-03-18T05:21:34.240Z,1004.44
2018-03-18T05:22:34.155Z,1004.52
2018-03-18T05:23:34.126Z,1004.51
2018-03-18T05:24:34.096Z,1004.51
2018-03-18T05:25:34.066Z,1004.56
2018-03-18T05:26:34.035Z,1004.53
2018-03-18T05:27:34.005Z,1004.48
2018-03-18T05:28:33.971Z,1004.62
2018-03-18T05:29:33.944Z,1004.41
2018-03-18T05:30:33.914Z,1004.56
2018-03-18T05:31:33.881Z,1004.59
2018-03-18T05:32:33.849Z,1004.59
2018-03-18T05:33:33.819Z,1004.57
2018-03-18T05:34:33.801Z,1004.66
2018-03-18T05:35:33.791Z,1004.56
2018-03-18T05:36:33.737Z,1004.60
2018-03-18T05:37:33.699Z,1004.60
2018-03-18T05:38:33.670Z,1004.66
2018-03-18T05:39:33.636Z,1004.69
2018-03-18T05:40:33.606Z,1004.69
2018-03-18T05:41:33.576Z,1004.64
2018-03-18T05:42:33.549Z,1004.60
2018-03-18T05:43:33.519Z,1004.72
2018-03-18T05:44:33.485Z,1004.65
2018-03-18T05:45:33.458Z,1004.70
2018-03-18T05:46:33.435Z,1004.66
2018-03-18T05:47:33.397Z,1004.62
2018-03-18T05:48:33.365Z,1004.72
2018-03-18T05:49:33.336Z,1004.67
2018-03-18T05:50:33.310Z,1004.59
2018-03-18T05:51:33.271Z,1004.78
2018-03-18T05:52:33.244Z,1004.80
2018-03-18T05:53:33.212Z,1004.67
2018-03-18T05:54:33.182Z,1004.72
2018-03-18T05:55:33.151Z,1004.73
2018-03-18T05:56:33.121Z,1004.71
2018-03-18T05:57:33.229Z,1004.74
2018-03-18T05:58:33.060Z,1004.81
2018-03-18T05:59:33.031Z,1004.73
2018-03-18T06:00:33.063Z,1004.81
2018-03-18T06:01:32.965Z,1004.80
2018-03-18T06:02:32.940Z,1004.79
2018-03-18T06:03:32.947Z,1004.80
2018-03-18T06:04:32.879Z,1004.82
2018-03-18T06:05:32.844Z,1004.80
2018-03-18T06:06:32.821Z,1004.78
2018-03-18T06:07:32.784Z,1004.74
2018-03-18T06:08:32.754Z,1004.79
2018-03-18T06:09:32.727Z,1004.87
2018-03-18T06:10:32.695Z,1005.00
2018-03-18T06:11:32.713Z,1004.88
2018-03-18T06:12:32.642Z,1004.79
2018-03-18T06:13:32.603Z,1004.90
2018-03-18T06:14:32.679Z,1004.85
2018-03-18T06:15:32.544Z,1004.77
2018-03-18T06:16:32.517Z,1004.82
2018-03-18T06:17:32.494Z,1004.87
2018-03-18T06:18:32.453Z,1004.79
2018-03-18T06:19:32.478Z,1004.85
2018-03-18T06:20:32.399Z,1004.90
2018-03-18T06:21:32.363Z,1004.89
2018-03-18T06:22:32.333Z,1004.91
2018-03-18T06:23:32.302Z,1004.92
2018-03-18T06:24:32.285Z,1004.92
2018-03-18T06:25:32.250Z,1005.10
2018-03-18T06:26:32.212Z,1005.06
2018-03-18T06:27:32.183Z,1004.92
2018-03-18T06:28:32.151Z,1004.94
2018-03-18T06:29:32.121Z,1004.93
2018-03-18T06:30:32.092Z,1004.94
2018-03-18T06:31:32.096Z,1005.02
2018-03-18T06:32:32.171Z,1005.04
2018-03-18T06:33:32.010Z,1004.95
2018-03-18T06:34:31.970Z,1004.95
2018-03-18T06:35:31.949Z,1004.92
2018-03-18T06:36:31.911Z,1004.98
2018-03-18T06:37:31.909Z,1004.99
2018-03-18T06:38:31.852Z,1004.99
2018-03-18T06:39:31.821Z,1005.00
2018-03-18T06:40:31.791Z,1004.99
2018-03-18T06:41:31.761Z,1005.04
2018-03-18T06:42:31.744Z,1004.98
2018-03-18T06:43:31.704Z,1005.07
2018-03-18T06:44:31.673Z,1005.12
2018-03-18T06:45:31.646Z,1005.23
2018-03-18T06:46:31.671Z,1004.97
2018-03-18T06:47:31.604Z,1005.13
2018-03-18T06:48:31.556Z,1005.12
2018-03-18T06:49:31.524Z,1005.13
2018-03-18T06:50:31.495Z,1005.09
2018-03-18T06:51:31.466Z,1004.98
2018-03-18T06:52:31.434Z,1004.94
2018-03-18T06:53:31.412Z,1004.97
2018-03-18T06:54:31.376Z,1005.10
2018-03-18T06:55:31.346Z,1005.09
2018-03-18T06:56:31.316Z,1005.14
2018-03-18T06:57:31.287Z,1005.10
2018-03-18T06:58:31.260Z,1005.14
2018-03-18T06:59:31.227Z,1005.18
2018-03-18T07:00:31.207Z,1005.11
2018-03-18T07:01:31.175Z,1005.20
2018-03-18T07:02:31.153Z,1005.17
2018-03-18T07:03:31.108Z,1005.08
2018-03-18T07:04:31.125Z,1005.27
2018-03-18T07:05:31.052Z,1005.23
2018-03-18T07:06:31.022Z,1005.22
2018-03-18T07:07:31.003Z,1005.35
2018-03-18T07:08:30.966Z,1005.25
2018-03-18T07:09:30.940Z,1005.11
2018-03-18T07:10:30.901Z,1005.28
2018-03-18T07:11:30.935Z,1005.29
2018-03-18T07:12:30.844Z,1005.26
2018-03-18T07:13:30.821Z,1005.39
2018-03-18T07:14:30.787Z,1005.28
2018-03-18T07:15:30.753Z,1005.24
2018-03-18T07:16:30.723Z,1005.32
2018-03-18T07:17:30.696Z,1005.32
2018-03-18T07:18:30.664Z,1005.28
2018-03-18T07:19:30.635Z,1005.39
2018-03-18T07:20:30.610Z,1005.37
2018-03-18T07:21:30.582Z,1005.37
2018-03-18T07:22:30.550Z,1005.44
2018-03-18T07:23:30.519Z,1005.53
2018-03-18T07:24:30.490Z,1005.45
2018-03-18T07:25:30.518Z,1005.45
2018-03-18T07:26:30.429Z,1005.49
2018-03-18T07:27:30.549Z,1005.49
2018-03-18T07:28:30.376Z,1005.44
2018-03-18T07:29:30.346Z,1005.49
2018-03-18T07:30:30.325Z,1005.56
2018-03-18T07:31:30.284Z,1005.54
2018-03-18T07:32:30.258Z,1005.57
2018-03-18T07:33:30.227Z,1005.56
2018-03-18T07:34:30.203Z,1005.61
2018-03-18T07:35:30.168Z,1005.43
2018-03-18T07:36:30.202Z,1005.36
2018-03-18T07:37:30.107Z,1005.51
2018-03-18T07:38:30.107Z,1005.52
2018-03-18T07:39:30.066Z,1005.56
2018-03-18T07:40:30.033Z,1005.49
2018-03-18T07:41:29.999Z,1005.53
2018-03-18T07:42:29.962Z,1005.59
2018-03-18T07:43:29.939Z,1005.61
2018-03-18T07:44:29.906Z,1005.68
2018-03-18T07:45:29.890Z,1005.71
2018-03-18T07:46:29.848Z,1005.61
2018-03-18T07:47:29.821Z,1005.50
2018-03-18T07:48:29.794Z,1005.56
2018-03-18T07:49:29.763Z,1005.67
2018-03-18T07:50:29.779Z,1005.59
2018-03-18T07:51:29.707Z,1005.61
2018-03-18T07:52:29.680Z,1005.60
2018-03-18T07:53:29.646Z,1005.68
2018-03-18T07:54:29.626Z,1005.63
2018-03-18T07:55:29.588Z,1005.64
2018-03-18T07:56:29.558Z,1005.66
2018-03-18T07:57:29.530Z,1005.77
2018-03-18T07:58:29.500Z,1005.75
2018-03-18T07:59:29.476Z,1005.72
2018-03-18T08:00:29.463Z,1005.89
2018-03-18T08:01:29.415Z,1005.79
2018-03-18T08:02:29.389Z,1005.84
2018-03-18T08:03:29.359Z,1005.82
2018-03-18T08:04:29.327Z,1006.02
2018-03-18T08:05:29.302Z,1005.81
2018-03-18T08:06:29.270Z,1005.91
2018-03-18T08:07:29.265Z,1006.07
2018-03-18T08:08:29.218Z,1005.87
2018-03-18T08:09:29.184Z,1005.95
2018-03-18T08:10:29.169Z,1006.02
2018-03-18T08:11:29.123Z,1005.89
2018-03-18T08:12:29.095Z,1005.69
2018-03-18T08:13:29.066Z,1005.93
2018-03-18T08:14:29.037Z,1005.96
2018-03-18T08:15:29.015Z,1005.88
2018-03-18T08:16:28.978Z,1005.88
2018-03-18T08:17:28.948Z,1005.88
2018-03-18T08:18:28.921Z,1005.93
2018-03-18T08:19:28.892Z,1005.90
2018-03-18T08:20:28.869Z,1005.83
2018-03-18T08:21:28.833Z,1005.97
2018-03-18T08:22:28.892Z,1006.09
2018-03-18T08:23:28.774Z,1005.93
2018-03-18T08:24:28.744Z,1005.92
2018-03-18T08:25:28.791Z,1005.95
2018-03-18T08:26:28.687Z,1005.95
2018-03-18T08:27:28.658Z,1005.96
2018-03-18T08:28:28.632Z,1005.93
2018-03-18T08:29:28.602Z,1005.96
2018-03-18T08:30:28.582Z,1005.94
2018-03-18T08:31:28.544Z,1005.95
2018-03-18T08:32:28.521Z,1006.03
2018-03-18T08:33:28.486Z,1006.02
2018-03-18T08:34:28.460Z,1006.01
2018-03-18T08:35:28.442Z,1006.06
2018-03-18T08:36:28.412Z,1006.03
2018-03-18T08:37:28.376Z,1006.12
2018-03-18T08:38:28.349Z,1005.99
2018-03-18T08:39:28.313Z,1006.00
2018-03-18T08:40:28.283Z,1006.12
2018-03-18T08:41:28.271Z,1005.99
2018-03-18T08:42:28.231Z,1005.97
2018-03-18T08:43:28.199Z,1006.08
2018-03-18T08:44:28.251Z,1005.89
2018-03-18T08:45:28.142Z,1005.96
2018-03-18T08:46:28.116Z,1005.99
2018-03-18T08:47:28.120Z,1006.10
2018-03-18T08:48:28.056Z,1005.93
2018-03-18T08:49:28.030Z,1005.99
2018-03-18T08:50:28.003Z,1006.04
2018-03-18T08:51:27.977Z,1006.02
2018-03-18T08:52:27.944Z,1006.11
2018-03-18T08:53:27.927Z,1006.07
2018-03-18T08:54:27.888Z,1006.01
2018-03-18T08:55:27.859Z,1006.09
2018-03-18T08:56:27.834Z,1006.06
2018-03-18T08:57:27.803Z,1006.17
2018-03-18T08:58:27.777Z,1006.05
2018-03-18T08:59:27.749Z,1006.10
2018-03-18T09:00:27.721Z,1006.03
2018-03-18T09:01:27.700Z,1006.20
2018-03-18T09:02:27.671Z,1006.15
2018-03-18T09:03:27.637Z,1006.14
2018-03-18T09:04:27.615Z,1006.03
2018-03-18T09:05:27.583Z,1006.16
2018-03-18T09:06:27.567Z,1006.08
2018-03-18T09:07:27.529Z,1006.06
2018-03-18T09:08:27.511Z,1006.12
2018-03-18T09:09:27.471Z,1006.25
2018-03-18T09:10:27.454Z,1006.13
2018-03-18T09:11:27.417Z,1006.17
2018-03-18T09:12:27.395Z,1006.45
2018-03-18T09:13:27.362Z,1006.09
2018-03-18T09:14:27.337Z,1006.11
2018-03-18T09:15:27.329Z,1006.06
2018-03-18T09:16:27.280Z,1006.15
2018-03-18T09:17:27.276Z,1006.21
2018-03-18T09:18:27.226Z,1006.19
2018-03-18T09:19:27.199Z,1006.20
2018-03-18T09:20:27.174Z,1006.26
2018-03-18T09:21:27.153Z,1006.18
2018-03-18T09:22:27.131Z,1006.21
2018-03-18T09:23:27.095Z,1006.21
2018-03-18T09:24:27.066Z,1006.11
2018-03-18T09:25:27.041Z,1006.03
2018-03-18T09:26:27.012Z,1006.24
2018-03-18T09:27:26.980Z,1006.23
2018-03-18T09:28:26.963Z,1006.30
2018-03-18T09:29:26.934Z,1006.12
2018-03-18T09:30:26.914Z,1006.15
2018-03-18T09:31:26.879Z,1006.13
2018-03-18T09:32:26.859Z,1006.12
2018-03-18T09:33:26.819Z,1006.09
2018-03-18T09:34:26.795Z,1006.19
2018-03-18T09:35:26.763Z,1006.20
2018-03-18T09:36:26.738Z,1006.07
2018-03-18T09:37:26.717Z,1006.28
2018-03-18T09:38:26.691Z,1006.26
2018-03-18T09:39:26.662Z,1006.18
2018-03-18T09:40:26.625Z,1006.26
2018-03-18T09:41:26.610Z,1006.27
2018-03-18T09:42:26.577Z,1006.28
2018-03-18T09:43:26.548Z,1006.35
2018-03-18T09:44:26.537Z,1006.33
2018-03-18T09:45:26.497Z,1006.27
2018-03-18T09:46:26.484Z,1006.31
2018-03-18T09:47:26.446Z,1006.34
2018-03-18T09:48:26.438Z,1006.27
2018-03-18T09:49:26.396Z,1006.29
2018-03-18T09:50:26.372Z,1006.35
2018-03-18T09:51:26.341Z,1006.40
2018-03-18T09:52:26.325Z,1006.35
2018-03-18T09:53:26.291Z,1006.37
2018-03-18T09:54:26.271Z,1006.44
2018-03-18T09:55:26.242Z,1006.44
2018-03-18T09:56:26.274Z,1006.49
2018-03-18T09:57:26.193Z,1006.40
2018-03-18T09:58:26.177Z,1006.42
2018-03-18T09:59:26.154Z,1006.42
2018-03-18T10:00:26.116Z,1006.48
2018-03-18T10:01:26.118Z,1006.53
2018-03-18T10:02:26.066Z,1006.36
2018-03-18T10:03:26.040Z,1006.40
2018-03-18T10:04:26.016Z,1006.42
2018-03-18T10:05:25.990Z,1006.61
2018-03-18T10:06:25.970Z,1006.46
2018-03-18T10:07:25.952Z,1006.46
2018-03-18T10:08:25.915Z,1006.50
2018-03-18T10:09:25.893Z,1006.56
2018-03-18T10:10:25.868Z,1006.40
2018-03-18T10:11:25.959Z,1006.45
2018-03-18T10:12:25.823Z,1006.47
2018-03-18T10:13:25.791Z,1006.47
2018-03-18T10:14:25.769Z,1006.39
2018-03-18T10:15:25.742Z,1006.58
2018-03-18T10:16:25.722Z,1006.41
2018-03-18T10:17:25.690Z,1006.46
2018-03-18T10:18:25.686Z,1006.47
2018-03-18T10:19:25.640Z,1006.47
2018-03-18T10:20:25.618Z,1006.43
2018-03-18T10:21:25.594Z,1006.42
2018-03-18T10:22:25.569Z,1006.48
2018-03-18T10:23:25.543Z,1006.50
2018-03-18T10:24:25.525Z,1006.56
2018-03-18T10:25:25.495Z,1006.75
2018-03-18T10:26:25.470Z,1006.52
2018-03-18T10:27:25.453Z,1006.49
2018-03-18T10:28:25.430Z,1006.58
2018-03-18T10:29:25.406Z,1006.47
2018-03-18T10:30:25.417Z,1006.51
2018-03-18T10:31:25.367Z,1006.51
2018-03-18T10:32:25.324Z,1006.54
2018-03-18T10:33:25.325Z,1006.49
2018-03-18T10:34:25.302Z,1006.47
2018-03-18T10:35:25.250Z,1006.41
2018-03-18T10:36:25.226Z,1006.37
2018-03-18T10:37:25.215Z,1006.60
2018-03-18T10:38:25.398Z,1006.57
2018-03-18T10:39:25.150Z,1006.61
2018-03-18T10:40:25.139Z,1006.42
2018-03-18T10:41:25.117Z,1006.48
2018-03-18T10:42:25.090Z,1006.54
2018-03-18T10:43:25.050Z,1006.52
2018-03-18T10:44:25.028Z,1006.53
2018-03-18T10:45:25.006Z,1006.68
2018-03-18T10:46:24.977Z,1006.60
2018-03-18T10:47:24.955Z,1006.51
2018-03-18T10:48:24.935Z,1006.48
2018-03-18T10:49:24.916Z,1006.54
2018-03-18T10:50:24.889Z,1006.51
2018-03-18T10:51:24.854Z,1006.50
2018-03-18T10:52:24.834Z,1006.51
2018-03-18T10:53:24.805Z,1006.50
2018-03-18T10:54:24.780Z,1006.43
2018-03-18T10:55:24.758Z,1006.53
2018-03-18T10:56:24.730Z,1006.50
2018-03-18T10:57:24.703Z,1006.51
2018-03-18T10:58:24.684Z,1006.45
2018-03-18T10:59:24.658Z,1006.57
2018-03-18T11:00:24.635Z,1006.49
2018-03-18T11:01:24.606Z,1006.63
2018-03-18T11:02:24.585Z,1006.52
2018-03-18T11:03:24.646Z,1006.45
2018-03-18T11:04:24.533Z,1006.52
2018-03-18T11:05:24.521Z,1006.33
2018-03-18T11:06:24.503Z,1006.46
2018-03-18T11:07:24.463Z,1006.39
2018-03-18T11:08:24.435Z,1006.61
2018-03-18T11:09:24.423Z,1006.41
2018-03-18T11:10:24.393Z,1006.40
2018-03-18T11:11:24.365Z,1006.49
2018-03-18T11:12:24.337Z,1006.53
2018-03-18T11:13:24.312Z,1006.51
2018-03-18T11:14:24.285Z,1006.58
2018-03-18T11:15:24.262Z,1006.43
2018-03-18T11:16:24.240Z,1006.55
2018-03-18T11:17:24.210Z,1006.42
2018-03-18T11:18:24.185Z,1006.50
2018-03-18T11:19:24.261Z,1006.49
2018-03-18T11:20:24.142Z,1006.85
2018-03-18T11:21:24.116Z,1006.65
2018-03-18T11:22:24.092Z,1006.74
2018-03-18T11:23:24.066Z,1006.89
2018-03-18T11:24:24.065Z,1006.93
2018-03-18T11:25:24.023Z,1006.94
2018-03-18T11:26:24.010Z,1006.63
2018-03-18T11:27:23.965Z,1006.57
2018-03-18T11:28:23.941Z,1006.62
2018-03-18T11:29:23.920Z,1006.69
2018-03-18T11:30:23.898Z,1006.64
2018-03-18T11:31:23.876Z,1006.52
2018-03-18T11:32:23.850Z,1006.67
2018-03-18T11:33:23.829Z,1006.69
2018-03-18T11:34:23.800Z,1006.37
2018-03-18T11:35:23.775Z,1006.55
2018-03-18T11:36:23.762Z,1006.65
2018-03-18T11:37:23.729Z,1006.58
2018-03-18T11:38:23.704Z,1006.66
2018-03-18T11:39:23.682Z,1006.58
2018-03-18T11:40:23.658Z,1006.66
2018-03-18T11:41:23.632Z,1006.39
2018-03-18T11:42:23.618Z,1006.42
2018-03-18T11:43:23.588Z,1006.27
2018-03-18T11:44:23.563Z,1006.23
2018-03-18T11:45:23.541Z,1006.35
2018-03-18T11:46:23.524Z,1006.31
2018-03-18T11:47:23.490Z,1006.34
2018-03-18T11:48:23.477Z,1006.53
2018-03-18T11:49:23.468Z,1006.37
2018-03-18T11:50:23.419Z,1006.56
2018-03-18T11:51:23.399Z,1006.74
2018-03-18T11:52:23.381Z,1006.58
2018-03-18T11:53:23.347Z,1006.53
2018-03-18T11:54:23.505Z,1006.45
2018-03-18T11:55:23.299Z,1006.32
2018-03-18T11:56:23.283Z,1006.42
2018-03-18T11:57:23.257Z,1006.35
2018-03-18T11:58:23.241Z,1006.51
2018-03-18T11:59:23.205Z,1006.55
2018-03-18T12:00:23.176Z,1006.61
2018-03-18T12:01:23.160Z,1006.63
2018-03-18T12:02:23.135Z,1006.48
2018-03-18T12:03:23.101Z,1006.57
2018-03-18T12:04:23.079Z,1006.40
2018-03-18T12:05:23.062Z,1006.27